createdAt,value
2018-05-29T00:01:37.793Z,6.10
2018-05-29T00:06:40.296Z,6.13
2018-05-29T00:11:42.866Z,5.50
2018-05-29T00:16:45.318Z,5.60
2018-05-29T00:21:47.840Z,6.30
2018-05-29T00:26:50.333Z,5.80
2018-05-29T00:31:52.861Z,5.67
2018-05-29T00:36:55.460Z,6.10
2018-05-29T00:41:58.036Z,6.27
2018-05-29T00:47:00.568Z,5.70
2018-05-29T00:52:03.075Z,5.50
2018-05-29T00:57:05.566Z,6.10
2018-05-29T01:02:08.555Z,5.90
2018-05-29T01:07:11.516Z,5.53
2018-05-29T01:12:14.007Z,5.97
2018-05-29T01:17:16.483Z,6.13
2018-05-29T01:22:18.997Z,5.50
2018-05-29T01:27:21.554Z,5.20
2018-05-29T01:32:24.079Z,6.10
2018-05-29T01:37:26.579Z,6.13
2018-05-29T01:42:29.045Z,5.53
2018-05-29T01:47:31.561Z,5.90
2018-05-29T01:52:34.096Z,5.73
2018-05-29T01:57:36.609Z,5.70
2018-05-29T02:02:39.355Z,6.07
2018-05-29T02:07:41.839Z,6.17
2018-05-29T02:12:44.310Z,6.53
2018-05-29T02:17:46.800Z,6.73
2018-05-29T02:22:49.304Z,6.53
2018-05-29T02:27:51.827Z,6.97
2018-05-29T02:32:54.401Z,6.50
2018-05-29T02:37:56.915Z,6.03
2018-05-29T02:42:59.415Z,5.63
2018-05-29T02:48:01.943Z,5.90
2018-05-29T02:53:05.372Z,6.40
2018-05-29T02:58:07.884Z,6.10
2018-05-29T03:03:10.359Z,6.30
2018-05-29T03:08:12.887Z,6.23
2018-05-29T03:13:15.364Z,6.33
2018-05-29T03:18:17.868Z,6.20
2018-05-29T03:23:20.385Z,6.27
2018-05-29T03:28:22.903Z,5.33
2018-05-29T03:33:25.555Z,6.20
2018-05-29T03:38:28.882Z,5.83
2018-05-29T03:43:31.365Z,5.90
2018-05-29T03:48:33.916Z,5.70
2018-05-29T03:53:36.401Z,6.00
2018-05-29T03:58:38.859Z,5.70
2018-05-29T04:03:42.083Z,5.77
2018-05-29T04:08:44.618Z,5.90
2018-05-29T04:13:47.147Z,5.40
2018-05-29T04:18:49.823Z,6.07
2018-05-29T04:23:52.463Z,5.60
2018-05-29T04:28:55.051Z,5.67
2018-05-29T04:33:58.583Z,5.10
2018-05-29T04:39:01.097Z,5.40
2018-05-29T04:44:03.591Z,5.33
2018-05-29T04:49:06.079Z,5.50
2018-05-29T04:54:08.605Z,5.30
2018-05-29T04:59:11.189Z,5.85
2018-05-29T05:04:13.699Z,5.80
2018-05-29T05:09:16.191Z,6.20
2018-05-29T05:14:18.781Z,5.10
2018-05-29T05:19:21.287Z,4.97
2018-05-29T05:24:23.794Z,5.30
2018-05-29T05:29:26.311Z,5.05
2018-05-29T05:34:28.824Z,5.55
2018-05-29T05:39:31.340Z,5.25
2018-05-29T05:44:33.838Z,5.60
2018-05-29T05:49:36.591Z,5.10
2018-05-29T05:54:39.101Z,4.70
2018-05-29T05:59:41.588Z,5.05
2018-05-29T06:04:44.079Z,4.90
2018-05-29T06:09:46.588Z,5.40
2018-05-29T06:14:49.127Z,4.68
2018-05-29T06:19:51.657Z,5.20
2018-05-29T06:24:54.201Z,4.57
2018-05-29T06:29:56.686Z,4.72
2018-05-29T06:34:59.207Z,4.80
2018-05-29T06:40:01.788Z,4.68
2018-05-29T06:45:04.358Z,5.47
2018-05-29T06:50:06.792Z,4.80
2018-05-29T06:55:09.355Z,5.30
2018-05-29T07:00:11.849Z,4.10
2018-05-29T07:05:14.380Z,4.47
2018-05-29T07:10:16.913Z,4.22
2018-05-29T07:15:19.399Z,4.30
2018-05-29T07:20:22.228Z,4.15
2018-05-29T07:25:24.738Z,4.18
2018-05-29T07:30:27.272Z,4.05
2018-05-29T07:35:29.760Z,3.50
2018-05-29T07:40:32.234Z,3.80
2018-05-29T07:45:34.756Z,3.37
2018-05-29T07:50:37.245Z,3.55
2018-05-29T07:55:39.734Z,3.45
2018-05-29T08:00:42.233Z,3.40
2018-05-29T08:05:44.744Z,3.30
2018-05-29T08:10:47.241Z,3.00
2018-05-29T08:15:49.747Z,2.70
2018-05-29T08:20:52.282Z,2.80
2018-05-29T08:25:54.845Z,3.03
2018-05-29T08:30:57.404Z,3.20
2018-05-29T08:35:59.932Z,2.80
2018-05-29T08:41:02.425Z,2.75
2018-05-29T08:46:04.935Z,2.87
2018-05-29T08:51:07.422Z,2.87
2018-05-29T08:56:09.916Z,2.97
2018-05-29T09:01:12.393Z,2.90
2018-05-29T09:06:14.866Z,2.80
2018-05-29T09:11:17.357Z,3.17
2018-05-29T09:16:19.865Z,3.17
2018-05-29T09:21:22.380Z,2.87
2018-05-29T09:26:24.912Z,2.70
2018-05-29T09:31:27.425Z,2.70
2018-05-29T09:36:29.919Z,2.65
2018-05-29T09:41:32.470Z,3.25
2018-05-29T09:46:35.609Z,2.92
2018-05-29T09:51:38.113Z,3.00
2018-05-29T09:56:40.661Z,3.25
2018-05-29T10:01:43.133Z,3.28
2018-05-29T10:06:45.626Z,3.37
2018-05-29T10:11:48.168Z,3.10
2018-05-29T10:16:50.693Z,3.30
2018-05-29T10:21:53.496Z,3.45
2018-05-29T10:26:56.047Z,4.15
2018-05-29T10:31:58.544Z,3.50
2018-05-29T10:37:01.036Z,3.40
2018-05-29T10:42:03.684Z,3.47
2018-05-29T10:47:06.135Z,3.67
2018-05-29T10:52:08.646Z,3.62
2018-05-29T10:57:11.176Z,4.68
2018-05-29T11:02:13.758Z,3.97
2018-05-29T11:07:16.517Z,4.40
2018-05-29T11:12:19.090Z,4.20
2018-05-29T11:17:21.614Z,4.47
2018-05-29T11:22:24.145Z,3.87
2018-05-29T11:27:26.659Z,4.32
2018-05-29T11:32:29.180Z,4.00
2018-05-29T11:37:31.679Z,4.50
2018-05-29T11:42:34.162Z,4.65
2018-05-29T11:47:36.659Z,4.25
2018-05-29T11:52:39.257Z,4.93
2018-05-29T11:57:41.760Z,4.75
2018-05-29T12:02:44.818Z,4.53
2018-05-29T12:07:47.343Z,4.30
2018-05-29T12:12:49.864Z,3.80
2018-05-29T12:17:52.402Z,4.43
2018-05-29T12:22:54.919Z,4.32
2018-05-29T12:27:57.412Z,4.28
2018-05-29T12:32:59.883Z,4.50
2018-05-29T12:38:02.370Z,4.60
2018-05-29T12:43:04.889Z,4.12
2018-05-29T12:48:07.350Z,4.10
2018-05-29T12:53:09.838Z,3.95
2018-05-29T12:58:12.320Z,4.53
2018-05-29T13:03:14.826Z,4.18
2018-05-29T13:08:17.379Z,4.68
2018-05-29T13:13:19.903Z,5.07
2018-05-29T13:18:22.423Z,4.62
2018-05-29T13:23:24.982Z,4.65
2018-05-29T13:28:27.515Z,4.60
2018-05-29T13:33:29.999Z,3.80
2018-05-29T13:38:32.498Z,4.25
2018-05-29T13:43:34.981Z,4.80
2018-05-29T13:48:37.570Z,4.18
2018-05-29T13:53:40.033Z,4.20
2018-05-29T13:58:42.526Z,4.30
2018-05-29T14:03:45.033Z,4.10
2018-05-29T14:08:48.241Z,4.45
2018-05-29T14:13:51.891Z,4.25
2018-05-29T14:18:54.463Z,4.28
2018-05-29T14:23:56.979Z,3.80
2018-05-29T14:28:59.501Z,3.83
2018-05-29T14:34:02.178Z,3.95
2018-05-29T14:39:05.393Z,4.10
2018-05-29T14:44:08.043Z,4.20
2018-05-29T14:49:11.473Z,3.95
2018-05-29T14:54:14.206Z,3.90
2018-05-29T14:59:16.709Z,4.50
2018-05-29T15:04:19.230Z,4.40
2018-05-29T15:09:21.728Z,4.25
2018-05-29T15:14:24.371Z,4.43
2018-05-29T15:19:26.931Z,4.05
2018-05-29T15:24:29.452Z,4.30
2018-05-29T15:29:32.064Z,4.12
2018-05-29T15:34:34.557Z,3.83
2018-05-29T15:39:37.112Z,3.92
2018-05-29T15:44:39.706Z,4.00
2018-05-29T15:49:42.174Z,4.82
2018-05-29T15:54:44.697Z,3.97
2018-05-29T15:59:47.190Z,5.12
2018-05-29T16:04:49.734Z,4.40
2018-05-29T16:09:52.212Z,4.37
2018-05-29T16:14:55.225Z,4.55
2018-05-29T16:19:57.822Z,4.70
2018-05-29T16:25:00.390Z,4.40
2018-05-29T16:30:02.904Z,4.30
2018-05-29T16:35:05.404Z,4.50
2018-05-29T16:40:07.998Z,3.50
2018-05-29T16:45:10.478Z,3.97
2018-05-29T16:50:12.963Z,3.40
2018-05-29T16:55:15.530Z,3.00
2018-05-29T17:00:18.284Z,3.37
2018-05-29T17:05:20.775Z,3.20
2018-05-29T17:10:24.057Z,3.30
2018-05-29T17:15:26.632Z,3.30
2018-05-29T17:20:29.086Z,3.00
2018-05-29T17:25:31.593Z,2.92
2018-05-29T17:30:34.109Z,2.87
2018-05-29T17:35:36.609Z,2.83
2018-05-29T17:40:39.300Z,2.90
2018-05-29T17:45:41.807Z,2.57
2018-05-29T17:50:44.285Z,2.90
2018-05-29T17:55:47.177Z,2.77
2018-05-29T18:00:49.791Z,2.70
2018-05-29T18:05:52.281Z,2.90
2018-05-29T18:10:57.600Z,3.30
2018-05-29T18:16:00.134Z,2.53
2018-05-29T18:21:04.781Z,2.60
2018-05-29T18:26:07.304Z,2.40
2018-05-29T18:31:09.851Z,2.37
2018-05-29T18:36:18.156Z,2.53
2018-05-29T18:41:24.203Z,2.50
2018-05-29T18:46:27.018Z,2.60
2018-05-29T18:51:32.961Z,2.80
2018-05-29T18:56:37.064Z,2.43
2018-05-29T19:01:39.689Z,2.70
2018-05-29T19:06:42.396Z,2.70
2018-05-29T19:11:44.977Z,2.73
2018-05-29T19:16:49.090Z,2.27
2018-05-29T19:21:52.135Z,2.80
2018-05-29T19:26:55.873Z,2.73
2018-05-29T19:31:58.344Z,2.40
2018-05-29T19:37:00.944Z,3.40
2018-05-29T19:42:05.595Z,2.43
2018-05-29T19:47:08.108Z,2.40
2018-05-29T19:52:10.814Z,2.97
2018-05-29T19:57:13.523Z,2.50
2018-05-29T20:02:16.034Z,2.90
2018-05-29T20:07:18.581Z,2.57
2018-05-29T20:12:21.047Z,2.60
2018-05-29T20:17:30.540Z,2.73
2018-05-29T20:22:33.033Z,2.20
2018-05-29T20:27:35.879Z,2.93
2018-05-29T20:32:39.566Z,3.10
2018-05-29T20:37:42.080Z,2.67
2018-05-29T20:42:44.559Z,2.70
2018-05-29T20:47:47.776Z,2.90
2018-05-29T20:52:51.600Z,2.57
2018-05-29T20:57:54.084Z,2.53
2018-05-29T21:02:57.973Z,2.90
2018-05-29T21:08:01.072Z,3.03
2018-05-29T21:13:03.773Z,2.63
2018-05-29T21:18:06.852Z,3.20
2018-05-29T21:23:09.376Z,2.60
2018-05-29T21:28:12.284Z,2.77
2018-05-29T21:33:15.467Z,3.10
2018-05-29T21:38:17.971Z,2.83
2018-05-29T21:43:20.471Z,2.87
2018-05-29T21:48:22.954Z,2.50
2018-05-29T21:53:26.194Z,2.80
2018-05-29T21:58:28.730Z,2.93
2018-05-29T22:03:31.213Z,3.07
2018-05-29T22:08:33.789Z,3.20
2018-05-29T22:13:36.313Z,3.10
2018-05-29T22:18:38.814Z,3.20
2018-05-29T22:23:41.303Z,2.67
2018-05-29T22:28:43.792Z,3.00
2018-05-29T22:33:46.282Z,3.17
2018-05-29T22:38:48.743Z,2.73
2018-05-29T22:43:51.290Z,3.10
2018-05-29T22:48:53.813Z,2.77
2018-05-29T22:53:56.282Z,2.23
2018-05-29T22:58:58.844Z,2.80
2018-05-29T23:04:01.300Z,2.77
2018-05-29T23:09:03.814Z,3.23
2018-05-29T23:14:06.365Z,2.50
2018-05-29T23:19:08.868Z,2.87
2018-05-29T23:24:11.363Z,3.00
2018-05-29T23:29:13.832Z,3.30
2018-05-29T23:34:16.372Z,3.10
2018-05-29T23:39:18.840Z,2.90
2018-05-29T23:44:21.326Z,3.13
2018-05-29T23:49:23.827Z,3.17
2018-05-29T23:54:26.306Z,3.27
2018-05-29T23:59:28.792Z,3.37
